Aéroport Valenciennes-Denain

LFAV · North, Hauts-de-France, France

METAR history LFAV · Aéroport Valenciennes-Denain

Below you see METARs of the last few days. Select a year to browse through older METARs, from the year 2007 onwards.

February 23, 2024

Time Code Weather Temp. Visibility Ceiling Wind METAR/SPECI
13:30
M
9 °C 10 km+ 2,600 ft 190° 190° 17 kt METAR LFQQ 231230Z AUTO 19017KT 9999 BKN026 BKN034 OVC041 09/05 Q0991 TEMPO 19015G25KT 3000 SHRA BKN014 BKN020CB
13:00
V
8 °C 10 km+ 3,300 ft 200° 200° 15 kt METAR LFQQ 231200Z AUTO 20015KT 9999 FEW024 BKN033 OVC039 08/05 Q0991 TEMPO 19015G25KT 3000 SHRA BKN014 BKN020CB
12:30
M
7 °C 10 km+ 2,400 ft 200° 200° 13 kt METAR LFQQ 231130Z AUTO 20013KT 170V230 9999 BKN024/// BKN030/// BKN035/// //////TCU 07/05 Q0991 TEMPO 19015G30KT 3000 SHRA BKN014 BKN020CB
12:00
M
6 °C 7 km 1,800 ft 220° 220° 15 kt METAR LFQQ 231100Z AUTO 22015KT 7000 -RA BKN018/// BKN024/// OVC032/// //////TCU 06/04 Q0992 TEMPO 19015G30KT 3000 SHRA BKN014 BKN020CB
11:30
M
6 °C 10 km+ 2,000 ft 200° 200° 17 kt METAR LFQQ 231030Z AUTO 20017KT 9999 -RADZ BKN020 BKN026 OVC062 06/04 Q0991 TEMPO 19015G30KT 3000 SHRA BKN014 BKN020CB
11:00
I
6 °C 4.9 km 2,500 ft 200° 200° 19 kt METAR LFQQ 231000Z AUTO 20019KT 9999 4900 -RA FEW019/// BKN025/// BKN030/// //////TCU 06/04 Q0991 TEMPO 19015G30KT 3000 SHRA BKN014 BKN020CB
10:30
M
7 °C 10 km+ 3,000 ft 200° 200° 17 - 27 kt METAR LFQQ 230930Z AUTO 20017G27KT 9999 SCT024/// BKN030/// BKN038/// //////TCU 07/04 Q0991 TEMPO 3000 SHRA BKN014 BKN020CB
10:00
M
6 °C 10 km+ 2,000 ft 200° 200° 17 kt METAR LFQQ 230900Z AUTO 20017KT 9999 -RA BKN020 BKN026 OVC031 06/04 Q0991 TEMPO 19015G30KT 3000 SHRA BKN014 BKN020CB
09:30
M
6 °C 10 km+ 2,300 ft 200° 200° 17 kt METAR LFQQ 230830Z AUTO 20017KT 9999 OVC023/// //////TCU 06/03 Q0990 TEMPO 19015G30KT 3000 SHRA BKN014 BKN020CB
09:00
M
5 °C 10 km+ 1,800 ft 190° 190° 17 kt METAR LFQQ 230800Z AUTO 19017KT 9999 BKN018 BKN026 BKN035 05/04 Q0990 TEMPO 19015G30KT 3000 SHRA BKN014 BKN020CB
08:30
M
5 °C 10 km+ 1,900 ft 190° 190° 19 kt METAR LFQQ 230730Z AUTO 19019KT 9999 -RADZ BKN019/// OVC025/// //////TCU 05/03 Q0990 TEMPO 19015G30KT 3000 SHRA BKN014 BKN020CB
08:00
V
5 °C 10 km+ 3,500 ft 190° 190° 18 kt METAR LFQQ 230700Z AUTO 19018KT 9999 SCT025 BKN035 BKN052 05/03 Q0989 TEMPO 19015G30KT 3000 SHRA BKN014 BKN020CB
07:30
V
5 °C 10 km+ 4,800 ft 190° 190° 16 kt METAR LFQQ 230630Z AUTO 19016KT 9999 SCT019 SCT030 BKN048 05/03 Q0989 TEMPO 19015G30KT 3000 SHRA BKN014 BKN020CB
07:00
M
5 °C 10 km+ 2,100 ft 180° 180° 18 kt METAR LFQQ 230600Z AUTO 18018KT 9999 BKN021 BKN027 OVC056 05/03 Q0990 TEMPO 19015G30KT 3000 SHRA BKN014 BKN020CB
06:30
V
5 °C 10 km+ 5,200 ft 180° 180° 17 kt METAR LFQQ 230530Z AUTO 18017KT 9999 FEW019 BKN052 BKN066 05/02 Q0990 TEMPO 3000 SHRA BKN014 BKN020CB BECMG 24015G30KT
06:00
V
5 °C 10 km+ 5,600 ft 180° 180° 15 kt METAR LFQQ 230500Z AUTO 18015KT 9999 SCT020 BKN056 BKN130 05/02 Q0990 TEMPO 3000 SHRA BKN014 BKN020CB BECMG 24015G30KT
05:30
V
5 °C 10 km+ 14,000 ft 180° 180° 16 kt METAR LFQQ 230430Z AUTO 18016KT 9999 FEW019 BKN140 BKN190 05/02 Q0990 TEMPO 3000 SHRA BKN014 BKN020CB BECMG 24015G30KT
05:00
V
5 °C 10 km+ 11,000 ft 190° 190° 16 kt METAR LFQQ 230400Z AUTO 19016KT 9999 FEW019 BKN110 BKN200 05/02 Q0990 TEMPO 3000 SHRA BKN014 BKN020CB BECMG 24015G30KT
04:30
M
5 °C 10 km+ 2,900 ft 200° 200° 17 kt METAR LFQQ 230330Z AUTO 20017KT 9999 SCT019 BKN029 BKN096 05/03 Q0990 TEMPO 3000 SHRA BKN014 BKN020CB BECMG 24015G30KT
04:00
M
5 °C 10 km+ 2,100 ft 200° 200° 17 kt METAR LFQQ 230300Z AUTO 20017KT 9999 BKN021 BKN027 OVC140 05/03 Q0991 TEMPO 3000 SHRA BKN014 BKN020CB BECMG 24015G30KT
03:30
V
5 °C 10 km+ 15,000 ft 200° 200° 15 kt METAR LFQQ 230230Z AUTO 20015KT 9999 FEW020 BKN150 OVC190 05/03 Q0990 TEMPO 3000 SHRA BKN014 BKN020CB BECMG 24015G30KT
03:00
V
5 °C 10 km+ 21,000 ft 210° 210° 17 kt METAR LFQQ 230200Z AUTO 21017KT 9999 FEW020 BKN210 05/03 Q0991 TEMPO 3000 SHRA BKN014 BKN020CB BECMG 24015G30KT
02:30
V
5 °C 10 km+ - 200° 200° 13 kt METAR LFQQ 230130Z AUTO 20013KT 9999 SCT020 SCT025 05/03 Q0991 TEMPO 3000 SHRA BKN014 BKN020CB BECMG 24015G30KT
02:00
V
5 °C 10 km+ 3,500 ft 210° 210° 16 kt METAR LFQQ 230100Z AUTO 21016KT 9999 SCT022 BKN035 BKN043 05/03 Q0991 TEMPO 3000 SHRA BKN014 BKN020CB BECMG 24015G30KT
01:30
M
5 °C 10 km+ 1,800 ft 220° 220° 21 kt METAR LFQQ 230030Z AUTO 22021KT 9999 -RA BKN018/// BKN027/// BKN038/// ///TCU 05/03 Q0991 TEMPO 3000 SHRA BKN014 BKN020CB BECMG 24015G25KT
01:00
M
5 °C 10 km+ 1,800 ft 210° 210° 16 kt METAR LFQQ 230000Z AUTO 21016KT 9999 OVC018/// //////TCU 05/03 Q0991 TEMPO 3000 SHRA BKN014 BKN020CB BECMG 24015G25KT
00:30
M
5 °C 10 km+ 2,100 ft 220° 220° 13 kt METAR LFQQ 222330Z AUTO 22013KT 9999 -RA BKN021/// BKN033/// BKN046/// //////TCU 05/03 Q0991 TEMPO 3000 SHRA BKN014 BKN020CB BECMG 24015G25KT
00:00
V
6 °C 10 km+ 4,400 ft 220° 220° 17 kt METAR LFQQ 222300Z AUTO 22017KT 9999 FEW035 BKN044 BKN120 06/02 Q0990 TEMPO 3000 SHRA BKN012 BKN020CB BECMG 25020G35KT

February 22, 2024

Time Code Weather Temp. Visibility Ceiling Wind METAR/SPECI
23:30
V
6 °C 10 km+ 4,700 ft 210° 210° 13 kt METAR LFQQ 222230Z AUTO 21013KT 9999 SCT034/// BKN047/// BKN064/// //////TCU 06/02 Q0990 TEMPO 3000 SHRA BKN012 BKN020CB BECMG 25020G35KT
23:00
V
6 °C 10 km+ - 240° 240° 17 kt METAR LFQQ 222200Z AUTO 24017KT CAVOK 06/02 Q0989 TEMPO 3000 SHRA BKN012 BKN020CB BECMG 25020G35KT
22:30
V
5 °C 10 km+ - 240° 240° 14 kt METAR LFQQ 222130Z AUTO 24014KT 9999 FEW021 05/03 Q0989 TEMPO 3000 SHRA BKN012 BKN020CB BECMG 25020G35KT
22:00
M
6 °C 10 km+ 1,900 ft 260° 260° 19 kt METAR LFQQ 222100Z AUTO 26019KT 9999 BKN019/// BKN027/// BKN035/// //////TCU 06/03 Q0988 TEMPO 3000 SHRA BKN012 BKN020CB BECMG 25020G35KT
21:30
M
6 °C 10 km+ 2,500 ft 260° 260° 24 - 34 kt METAR LFQQ 222030Z AUTO 26024G34KT 9999 BKN025/// BKN031/// OVC072/// //////TCU 06/03 Q0987 TEMPO 3000 SHRA BKN012 BKN020CB
21:00
M
7 °C 10 km+ 2,700 ft 250° 250° 28 - 40 kt METAR LFQQ 222000Z AUTO 25028G40KT 9999 BKN027 OVC034 07/03 Q0986 TEMPO 3000 SHRA BKN012 BKN020CB
20:30
M
8 °C 10 km+ 2,900 ft 240° 240° 25 kt METAR LFQQ 221930Z AUTO 24025KT 9999 BKN029/// BKN035/// BKN130/// ///TCU 08/03 Q0984 TEMPO VRB20G35KT 3000 SHRA BKN012 BKN020CB
20:00
V
7 °C 10 km+ 4,000 ft 240° 240° 28 - 39 kt METAR LFQQ 221900Z AUTO 24028G39KT 9999 SCT028 SCT034 BKN040 07/04 Q0984 TEMPO 3000 SHRA BKN012 BKN020CB
19:30
M
8 °C 10 km+ 2,700 ft 240° 240° 28 - 47 kt METAR LFQQ 221830Z AUTO 24028G47KT 9999 BKN027 OVC045 08/04 Q0983 TEMPO VRB20G35KT 3000 SHRA BKN012 BKN020CB
19:00
M
9 °C 10 km+ 2,800 ft 240° 240° 27 - 41 kt METAR LFQQ 221800Z AUTO 24027G41KT 9999 BKN028 OVC039 09/04 Q0982 TEMPO 24030G55KT 3000 SHRA BKN012 BKN020CB
18:30
M
9 °C 10 km+ 2,600 ft 240° 240° 26 kt METAR LFQQ 221730Z AUTO 24026KT 9999 OVC026 09/05 Q0981 TEMPO VRB20G35KT 3000 SHRA BKN012 BKN020CB
18:00
M
9 °C 10 km+ 2,400 ft 240° 240° 35 - 52 kt METAR LFQQ 221700Z AUTO 24035G52KT 9999 OVC024 09/05 Q0980 TEMPO 2000 RA BKN012 BKN020CB
17:30
M
10 °C 10 km+ 2,500 ft 230° 230° 36 - 52 kt METAR LFQQ 221630Z AUTO 23036G52KT 9999 BKN025/// BKN048/// BKN058/// //////CB 10/06 Q0978 TEMPO 2000 RA BKN012 BKN020CB
17:00
M
10 °C 10 km+ 2,500 ft 240° 240° 25 kt METAR LFQQ 221600Z AUTO 24025KT 9999 -RA SCT020/// BKN025/// BKN036/// //////CB 10/08 Q0977 TEMPO 24030G55KT 2000 RA BKN012 BKN020CB
16:30
V
13 °C 10 km+ 6,000 ft 190° 190° 27 - 40 kt METAR LFQQ 221530Z AUTO 19027G40KT 9999 SCT028/// SCT039/// BKN060/// //////CB 13/09 Q0976 TEMPO 24030G55KT 2000 RA BKN012 BKN020CB
16:00
V
14 °C 10 km+ 9,000 ft 180° 180° 26 - 37 kt METAR LFQQ 221500Z AUTO 18026G37KT 9999 FEW022/// BKN090/// OVC110/// //////TCU 14/10 Q0976 TEMPO 24030G55KT 2000 RA BKN012 BKN020CB
15:30
M
14 °C 10 km+ 1,600 ft 180° 180° 23 kt METAR LFQQ 221430Z AUTO 18023KT 9999 OVC016 14/11 Q0978 TEMPO 24030G55KT 2000 RA BKN012 BKN020CB
15:00
M
14 °C 10 km+ 1,600 ft 170° 170° 20 - 31 kt METAR LFQQ 221400Z AUTO 17020G31KT 9999 OVC016 14/12 Q0979 TEMPO 24030G55KT 2000 RA BKN012 BKN020CB
14:30
M
14 °C 10 km+ 1,300 ft 180° 180° 19 kt METAR LFQQ 221330Z AUTO 18019KT 9999 BKN013 OVC020 14/12 Q0980 TEMPO 24030G55KT 2000 RA BKN012 BKN020CB
14:00
M
14 °C 10 km+ 1,200 ft 180° 180° 21 - 33 kt METAR LFQQ 221300Z AUTO 18021G33KT 9999 OVC012 14/12 Q0982 TEMPO 24030G55KT 2000 RA BKN012 BKN020CB
13:30
M
14 °C 10 km+ 1,200 ft 180° 180° 18 kt METAR LFQQ 221230Z AUTO 18018KT 9999 BKN012 OVC019 14/12 Q0983 TEMPO 24030G55KT 2000 RA BKN012 BKN020CB
13:00
M
14 °C 10 km+ 1,000 ft 190° 190° 20 kt METAR LFQQ 221200Z AUTO 19020KT 9999 BKN010 OVC015 14/13 Q0984 TEMPO 24030G55KT 2000 RA BKN012 BKN020CB
12:30
I
13 °C 10 km+ 700 ft 180° 180° 13 kt METAR LFQQ 221130Z AUTO 18013KT 9999 BKN007 OVC011 13/12 Q0985 TEMPO 24030G55KT 2000 RA BKN012 BKN020CB
12:00
I
13 °C 9 km 500 ft 170° 170° 12 kt METAR LFQQ 221100Z AUTO 17012KT 9000 OVC005 13/12 Q0986 TEMPO 2000 RA BECMG 20015G25KT
11:30
I
12 °C 10 km+ 500 ft 180° 180° 11 kt METAR LFQQ 221030Z AUTO 18011KT 9999 OVC005 12/12 Q0987 TEMPO 2000 RA BECMG 20015G25KT
11:00
L
12 °C 6 km 400 ft 180° 180° 13 kt METAR LFQQ 221000Z AUTO 18013KT 6000 OVC004 12/11 Q0988 TEMPO 2000 RA BECMG 20015G25KT
10:30
L
11 °C 4.3 km 400 ft 180° 180° 12 kt METAR LFQQ 220930Z AUTO 18012KT 9999 4300 OVC004 11/11 Q0989 TEMPO 2000 RA BECMG 20015G25KT
10:00
L
10 °C 10 km+ 300 ft 160° 160° 12 kt METAR LFQQ 220900Z AUTO 16012KT 9999 BKN003 OVC010 10/10 Q0989 TEMPO 2000 RA BECMG 20015G25KT
09:30
L
10 °C 3.3 km 400 ft 160° 160° 11 kt METAR LFQQ 220830Z AUTO 16011KT 3300 -RADZ BR OVC004 10/10 Q0990 TEMPO 2000 RA BECMG 20015G25KT
09:00
I
10 °C 10 km+ 500 ft 170° 170° 10 kt METAR LFQQ 220800Z AUTO 17010KT 9999 OVC005 10/10 Q0992 TEMPO 2000 RA
08:30
I
10 °C 10 km+ 600 ft 150° 150° 6 kt METAR LFQQ 220730Z AUTO 15006KT 9999 BKN006 BKN041 OVC048 10/09 Q0992 TEMPO 2000 RA BKN003
08:00
V
9 °C 10 km+ 4,500 ft 150° 150° 6 kt METAR LFQQ 220700Z AUTO 15006KT 9999 FEW006 BKN045 OVC054 09/09 Q0993 TEMPO 2000 RA BKN003
07:30
V
8 °C 10 km+ - 140° 140° 5 kt METAR LFQQ 220630Z AUTO 14005KT CAVOK 08/08 Q0994 TEMPO 2000 RA BKN003
07:00
I
8 °C 2.7 km - 130° 130° 3 kt METAR LFQQ 220600Z AUTO 13003KT 9999 2700 NSC 08/08 Q0995 TEMPO 3000 -RADZ BKN006 BECMG 21012KT
06:30
V
8 °C 10 km+ - 150° 150° 2 kt METAR LFQQ 220530Z AUTO 15002KT CAVOK 08/08 Q0995 TEMPO 3000 -RADZ BKN006 BECMG 21012KT
06:00
V
9 °C 10 km+ - 170° 170° 3 kt METAR LFQQ 220500Z AUTO 17003KT CAVOK 09/08 Q0996 TEMPO 3000 -RADZ BKN006
05:30
V
9 °C 10 km+ 12,000 ft 180° 180° 3 kt METAR LFQQ 220430Z AUTO 18003KT 9999 SCT011 SCT052 BKN120 09/08 Q0996 TEMPO 3000 -RADZ BKN006
05:00
V
10 °C 10 km+ 5,400 ft 200° 200° 4 kt METAR LFQQ 220400Z AUTO 20004KT 170V240 9999 FEW010 BKN054 OVC100 10/09 Q0997 TEMPO 3000 RADZ BKN006
04:30
V
10 °C 10 km+ - 180° 180° 6 kt METAR LFQQ 220330Z AUTO 18006KT CAVOK 10/09 Q0997 TEMPO 3000 RADZ BKN006
04:00
V
10 °C 10 km+ - 180° 180° 7 kt METAR LFQQ 220300Z AUTO 18007KT CAVOK 10/09 Q0997 TEMPO 3000 RADZ BKN006
03:30
V
10 °C 10 km+ - 200° 200° 10 kt METAR LFQQ 220230Z AUTO 20010KT 9999 -RA NSC 10/09 Q0998 TEMPO 3000 RADZ BKN006
03:00
V
10 °C 10 km+ 8,000 ft 220° 220° 11 kt METAR LFQQ 220200Z AUTO 22011KT 9999 -RA FEW016 SCT064 OVC080 10/09 Q0999 TEMPO 3000 RADZ BKN006
02:30
V
11 °C 10 km+ 6,000 ft 230° 230° 11 kt METAR LFQQ 220130Z AUTO 23011KT 9999 -RA FEW014/// OVC060/// //////TCU 11/10 Q0999 TEMPO 3000 RADZ BKN006
02:00
V
11 °C 10 km+ 6,200 ft 220° 220° 12 kt METAR LFQQ 220100Z AUTO 22012KT 9999 -RA FEW012 BKN062 OVC074 11/10 Q1000 TEMPO 3000 RADZ BKN006
00:30
I
11 °C 10 km+ 600 ft 220° 220° 14 kt METAR LFQQ 212330Z AUTO 22014KT 9999 -RADZ OVC006 11/10 Q1001 TEMPO 3000 RADZ
00:00
I
11 °C 10 km+ 600 ft 210° 210° 14 kt METAR LFQQ 212300Z AUTO 21014KT 9999 OVC006 11/10 Q1001 TEMPO 3000 RADZ

February 21, 2024

Time Code Weather Temp. Visibility Ceiling Wind METAR/SPECI
23:30
I
11 °C 10 km+ 600 ft 200° 200° 13 kt METAR LFQQ 212230Z AUTO 20013KT 9999 OVC006 11/10 Q1001 TEMPO 3000 RADZ
23:00
I
10 °C 10 km+ 600 ft 200° 200° 14 kt METAR LFQQ 212200Z AUTO 20014KT 9999 OVC006 10/10 Q1001 TEMPO 3000 RADZ
22:30
I
10 °C 10 km+ 600 ft 200° 200° 15 kt METAR LFQQ 212130Z AUTO 20015KT 9999 OVC006 10/10 Q1001 TEMPO 3000 RADZ
22:00
I
10 °C 7 km 600 ft 200° 200° 16 kt METAR LFQQ 212100Z AUTO 20016KT 7000 OVC006 10/10 Q1002 TEMPO 3000 RADZ
21:30
I
10 °C 10 km+ 700 ft 200° 200° 17 kt METAR LFQQ 212030Z AUTO 20017KT 9999 OVC007 10/09 Q1002 TEMPO 3000 RADZ
21:00
I
10 °C 9 km 700 ft 200° 200° 18 kt METAR LFQQ 212000Z AUTO 20018KT 9000 -RA OVC007 10/09 Q1002 TEMPO 19015G28KT 3000 RADZ
20:30
I
10 °C 8 km 800 ft 190° 190° 18 kt METAR LFQQ 211930Z AUTO 19018KT 8000 -RA OVC008 10/09 Q1003 TEMPO 19015G28KT 3000 RADZ
20:00
I
10 °C 10 km+ 800 ft 190° 190° 18 kt METAR LFQQ 211900Z AUTO 19018KT 9999 -RA BKN008 OVC017 10/09 Q1003 TEMPO 3000 RADZ BECMG 19015G28KT
19:30
I
10 °C 10 km+ 900 ft 190° 190° 17 kt METAR LFQQ 211830Z AUTO 19017KT 9999 BKN009 OVC016 10/09 Q1003 TEMPO 3000 RADZ BECMG 19015G28KT
19:00
I
10 °C 10 km+ 900 ft 180° 180° 19 kt METAR LFQQ 211800Z AUTO 18019KT 9999 -RA OVC009 10/09 Q1004 TEMPO 3000 RADZ BECMG 19015G28KT
18:30
I
10 °C 9 km 900 ft 180° 180° 18 kt METAR LFQQ 211730Z AUTO 18018KT 9000 -RA OVC009 10/09 Q1004 TEMPO 3000 RADZ BECMG 19015G28KT
18:00
M
10 °C 10 km+ 1,000 ft 190° 190° 17 kt METAR LFQQ 211700Z AUTO 19017KT 9999 -RA OVC010 10/09 Q1004 TEMPO 3000 RA BECMG 21017G30KT
17:30
M
10 °C 10 km+ 1,000 ft 180° 180° 17 kt METAR LFQQ 211630Z AUTO 18017KT 9999 -RA OVC010/// //////TCU 10/09 Q1005 TEMPO 3000 RA BKN008 BECMG 21017G30KT
17:00
M
10 °C 8 km 1,000 ft 180° 180° 17 kt METAR LFQQ 211600Z AUTO 18017KT 8000 -RA OVC010 10/08 Q1006 TEMPO 3000 RA BECMG 21017G30KT
16:30
M
10 °C 10 km+ 1,200 ft 180° 180° 17 kt METAR LFQQ 211530Z AUTO 18017KT 9999 -RA OVC012 10/08 Q1006 TEMPO 3000 RA BKN008 BECMG 21017G30KT
16:00
M
9 °C 10 km+ 1,200 ft 180° 180° 15 kt METAR LFQQ 211500Z AUTO 18015KT 9999 -RA BKN012 OVC018 09/08 Q1007 TEMPO 3000 RA BKN008 BECMG 21017G30KT
15:30
M
9 °C 7 km 1,200 ft 170° 170° 15 kt METAR LFQQ 211430Z AUTO 17015KT 7000 -RA BKN012 BKN018 BKN024 09/08 Q1008 TEMPO 3000 RA BKN008 BECMG 21017G30KT
15:00
M
9 °C 9 km 1,500 ft 170° 170° 17 kt METAR LFQQ 211400Z AUTO 17017KT 9000 -RA BKN015 BKN036 BKN042 09/08 Q1008 TEMPO 3000 RA BKN008 BECMG 21017G30KT
14:30
M
10 °C 10 km+ 1,600 ft 170° 170° 16 kt METAR LFQQ 211330Z AUTO 17016KT 9999 -RA BKN016 BKN037 BKN050 10/08 Q1009 TEMPO 3000 RA BKN008 BECMG 21017G30KT
14:00
M
10 °C 10 km+ 1,600 ft 180° 180° 16 kt METAR LFQQ 211300Z AUTO 18016KT 9999 -DZ BKN016 OVC060 10/07 Q1011 TEMPO 3000 RA BKN008 BECMG 21017G30KT
13:30
M
10 °C 10 km+ 1,500 ft 180° 180° 15 kt METAR LFQQ 211230Z AUTO 18015KT 9999 OVC015 10/07 Q1011 TEMPO 3000 RA BKN008 BECMG 21017G30KT
13:00
M
10 °C 10 km+ 1,400 ft 180° 180° 13 kt METAR LFQQ 211200Z AUTO 18013KT 9999 BKN014 OVC021 10/07 Q1012 TEMPO 3000 RA BKN008 BECMG 21017G30KT
12:30
M
9 °C 10 km+ 1,300 ft 190° 190° 16 kt METAR LFQQ 211130Z AUTO 19016KT 9999 OVC013 09/07 Q1013 TEMPO 3000 RA BKN008 BECMG 21017G30KT
12:00
M
9 °C 10 km+ 1,300 ft 190° 190° 16 kt METAR LFQQ 211100Z AUTO 19016KT 9999 OVC013 09/07 Q1014 BECMG 22017G30KT
11:30
M
9 °C 10 km+ 1,200 ft 180° 180° 14 kt METAR LFQQ 211030Z AUTO 18014KT 9999 OVC012 09/07 Q1015 BECMG 22017G30KT
11:00
M
9 °C 10 km+ 1,200 ft 180° 180° 13 kt METAR LFQQ 211000Z AUTO 18013KT 9999 OVC012 09/07 Q1015 BECMG 22017G30KT
10:30
M
9 °C 10 km+ 1,300 ft 170° 170° 11 kt METAR LFQQ 210930Z AUTO 17011KT 9999 BKN013 OVC025 09/07 Q1015 BECMG 22017G30KT
10:00
M
9 °C 10 km+ 2,700 ft 170° 170° 10 kt METAR LFQQ 210900Z AUTO 17010KT 9999 SCT012 OVC027 09/07 Q1016 TEMPO 4000 DZ BKN013 BECMG 22017G30KT
09:30
M
8 °C 10 km+ 2,600 ft 170° 170° 10 kt METAR LFQQ 210830Z AUTO 17010KT 9999 FEW011 BKN026 OVC098 08/07 Q1017 TEMPO 4000 DZ BKN013 BECMG 22017G30KT
09:00
M
8 °C 10 km+ 2,700 ft 160° 160° 10 kt METAR LFQQ 210800Z AUTO 16010KT 9999 FEW010 BKN027 OVC096 08/07 Q1017 TEMPO 4000 DZ BKN006 BECMG 22008KT
08:30
M
8 °C 10 km+ 2,800 ft 170° 170° 10 kt METAR LFQQ 210730Z AUTO 17010KT 9999 FEW007 BKN028 OVC110 08/07 Q1018 TEMPO 4000 DZ BKN006
08:00
M
8 °C 10 km+ 2,800 ft 180° 180° 10 kt METAR LFQQ 210700Z AUTO 18010KT 9999 FEW008 OVC028 08/07 Q1018 TEMPO 4000 DZ BKN006
07:30
M
8 °C 10 km+ 2,800 ft 180° 180° 11 kt METAR LFQQ 210630Z AUTO 18011KT 9999 FEW010 OVC028 08/07 Q1018 TEMPO 4000 DZ BKN006
07:00
M
8 °C 10 km+ 2,800 ft 170° 170° 9 kt METAR LFQQ 210600Z AUTO 17009KT 9999 OVC028 08/07 Q1019 TEMPO 4000 DZ BKN006